Pagrindinis puslapis
METAR-TAF:

METAR-TAF

Oro uostai :

Jendouba, Tunisas

platuma: 36-29N, ilguma: 008-48E, Aukštis: 143 m

Dabartinis oras

Ataskaita buvo paskelbta 48 minutes, ne 05:00 UTC
Vėjas 2 kt iš Pietvakarių
Temperatūra 18°C
Drėgmė 64%
Slėgis 1010 hPa
Matomumas: 8000 m
Mažai debesys ne aukštis 2000 ft

METAR: DTTN 070500Z 22002KT 8000 FEW020 18/11 Q1010

Laikas: 06:48 (05:48 UTC)


TAF: trūkstamas

Orai ataskaitas ir orų prognozės (METAR, TAF).

turimą stotys yra geltonos ir raudonos taškus žemėlapyje.

Perkelti pele per norėdami pamatyti stoties vardą.

Tada spustelėkite, norėdami matyti oro stebėjimo ir prognozės.

Norėdami pakeisti žemėlapį: spustelėkite ant žalios mygtukų su juodo kryžiaus žemyn,; žalią mygtuką su brūkšneliu, jei norite nutolinti; arba žalių rodyklių gretimoms žemėlapius.


METAR-TAF: